Time;durP1;ratioP1;P1;durP2;ratioP2;P2;SDS_P1;SDS_P2;PMS_P1;PMS_P2;Temp;Humidity;BMP_temperature;BMP_pressure;BME280_temperature;BME280_humidity;BME280_pressure;Samples;Min_cycle;Max_cycle;Signal;HPM_P1;HPM_P2
2023/12/21 00:01:43;;;;;;;19.33;3.97;;;11.50;99.90;;;;;;5049255;28;20408;-88
2023/12/21 00:04:08;;;;;;;21.80;4.25;;;11.30;99.90;;;;;;5050189;28;20067;-84
2023/12/21 00:06:34;;;;;;;20.20;4.72;;;11.70;99.90;;;;;;5050131;28;20036;-83
2023/12/21 00:09:00;;;;;;;21.83;4.53;;;11.10;99.90;;;;;;5051117;28;20021;-87
2023/12/21 00:11:25;;;;;;;19.95;3.90;;;11.50;99.90;;;;;;5050293;28;20028;-85
2023/12/21 00:13:51;;;;;;;16.63;4.30;;;11.90;99.90;;;;;;5050232;28;20075;-85
2023/12/21 00:16:16;;;;;;;22.02;4.35;;;11.00;99.90;;;;;;5050021;28;20033;-86
2023/12/21 00:18:42;;;;;;;21.92;4.20;;;11.40;99.90;;;;;;5050087;28;20025;-84
2023/12/21 00:21:08;;;;;;;25.13;4.55;;;11.30;99.90;;;;;;5049694;28;20119;-85
2023/12/21 00:23:34;;;;;;;30.63;5.82;;;11.50;99.90;;;;;;5050694;28;20460;-85
2023/12/21 00:26:00;;;;;;;18.70;3.42;;;11.20;99.90;;;;;;5050686;28;20059;-84
2023/12/21 00:28:26;;;;;;;22.38;4.35;;;11.60;99.90;;;;;;5049809;28;20065;-87
2023/12/21 00:30:51;;;;;;;22.38;4.40;;;11.80;99.90;;;;;;5049834;28;20044;-84
2023/12/21 00:33:17;;;;;;;22.15;4.55;;;11.90;99.90;;;;;;5050125;28;20376;-87
2023/12/21 00:35:43;;;;;;;27.45;5.70;;;12.30;99.90;;;;;;5050172;28;20029;-87
2023/12/21 00:38:08;;;;;;;15.25;4.47;;;11.30;99.90;;;;;;5050080;28;20544;-83
2023/12/21 00:40:34;;;;;;;20.88;4.30;;;11.50;99.90;;;;;;5032485;28;20040;-84
2023/12/21 00:43:00;;;;;;;24.85;4.55;;;11.70;99.90;;;;;;5049724;28;20066;-86
2023/12/21 00:45:26;;;;;;;22.83;3.92;;;11.60;99.90;;;;;;5049433;28;20139;-85
2023/12/21 00:47:52;;;;;;;28.65;4.50;;;11.50;99.90;;;;;;5049548;28;20095;-86
2023/12/21 00:50:17;;;;;;;23.55;3.67;;;11.50;99.90;;;;;;5031317;28;20036;-86
2023/12/21 00:52:43;;;;;;;18.25;3.40;;;11.50;99.90;;;;;;5049421;28;20025;-87
2023/12/21 00:55:09;;;;;;;24.17;4.43;;;11.70;99.90;;;;;;5049356;28;20436;-86
2023/12/21 00:57:34;;;;;;;16.15;3.17;;;10.90;99.90;;;;;;5050073;28;20092;-87
2023/12/21 01:00:00;;;;;;;16.45;3.53;;;11.70;99.90;;;;;;5049201;28;20041;-84
2023/12/21 01:02:25;;;;;;;17.40;3.38;;;11.40;99.90;;;;;;5049068;28;20311;-86
2023/12/21 01:04:51;;;;;;;17.83;3.88;;;11.70;99.90;;;;;;5048888;28;20040;-86
2023/12/21 01:07:17;;;;;;;14.57;3.03;;;10.90;99.90;;;;;;5049068;28;20087;-83
2023/12/21 01:09:43;;;;;;;20.90;4.15;;;11.70;99.90;;;;;;5049055;28;20540;-84
2023/12/21 01:12:08;;;;;;;10.60;2.88;;;11.30;99.90;;;;;;5048968;28;20072;-87
2023/12/21 01:14:34;;;;;;;20.13;3.55;;;11.40;99.90;;;;;;5049933;28;20056;-87
2023/12/21 01:16:59;;;;;;;20.27;4.07;;;11.40;99.90;;;;;;5049025;28;20029;-85
2023/12/21 01:19:26;;;;;;;18.80;4.05;;;11.50;99.90;;;;;;5048862;28;20029;-87
2023/12/21 01:21:52;;;;;;;20.02;3.40;;;11.60;99.90;;;;;;5048955;28;20061;-85
2023/12/21 01:24:17;;;;;;;13.82;3.90;;;11.50;99.90;;;;;;5048745;28;20519;-84
2023/12/21 01:26:43;;;;;;;19.20;4.15;;;11.50;99.90;;;;;;5048989;28;20029;-85
2023/12/21 01:29:08;;;;;;;18.00;3.88;;;12.30;99.90;;;;;;5048964;28;20108;-83
2023/12/21 01:31:34;;;;;;;10.55;3.28;;;11.90;99.90;;;;;;5049807;28;20029;-85
2023/12/21 01:34:01;;;;;;;16.83;3.67;;;11.40;99.90;;;;;;5048951;28;20414;-85
2023/12/21 01:36:27;;;;;;;15.18;3.40;;;11.20;99.90;;;;;;5048862;28;20021;-85
2023/12/21 01:38:52;;;;;;;13.02;3.38;;;11.50;99.90;;;;;;5048867;28;20032;-85
2023/12/21 01:41:18;;;;;;;13.15;3.45;;;11.50;99.90;;;;;;5048819;28;20033;-87
2023/12/21 01:43:44;;;;;;;15.95;2.72;;;11.50;99.90;;;;;;5048920;28;20108;-85
2023/12/21 01:46:09;;;;;;;11.65;2.88;;;11.50;99.90;;;;;;5048789;28;20025;-83
2023/12/21 01:48:36;;;;;;;13.32;3.22;;;11.50;99.90;;;;;;5049530;28;20079;-86
2023/12/21 01:51:04;;;;;;;11.55;2.88;;;11.50;99.90;;;;;;5048714;28;20033;-84
2023/12/21 01:53:31;;;;;;;10.67;2.87;;;11.40;99.90;;;;;;5048699;28;20033;-86
2023/12/21 01:55:57;;;;;;;13.70;2.85;;;11.30;99.90;;;;;;5048638;28;20385;-82
2023/12/21 01:58:23;;;;;;;13.75;2.42;;;11.60;99.90;;;;;;5048659;28;20037;-87
2023/12/21 02:00:49;;;;;;;9.73;3.35;;;11.70;99.90;;;;;;5048582;28;20033;-87
2023/12/21 02:03:16;;;;;;;10.60;2.90;;;11.40;99.90;;;;;;5048412;28;20033;-83
2023/12/21 02:05:41;;;;;;;13.10;3.13;;;11.50;99.90;;;;;;5030743;28;20385;-86
2023/12/21 02:08:07;;;;;;;14.73;2.70;;;11.20;99.90;;;;;;5049442;28;20485;-83
2023/12/21 02:10:33;;;;;;;10.38;3.05;;;12.00;99.90;;;;;;5048611;28;20025;-84
2023/12/21 02:12:58;;;;;;;10.25;2.25;;;12.00;99.90;;;;;;5048563;28;20021;-87
2023/12/21 02:15:24;;;;;;;5.07;2.10;;;11.60;99.90;;;;;;5048459;28;20017;-86
2023/12/21 02:17:52;;;;;;;10.90;3.78;;;11.90;99.90;;;;;;5048393;28;20028;-88
2023/12/21 02:20:19;;;;;;;6.40;2.50;;;11.70;99.90;;;;;;5048320;28;20021;-83
2023/12/21 02:22:48;;;;;;;9.52;2.80;;;11.40;99.90;;;;;;5048407;28;20279;-85
2023/12/21 02:25:14;;;;;;;12.30;2.72;;;11.60;99.90;;;;;;5050640;28;20548;-86
2023/12/21 02:27:40;;;;;;;10.88;2.35;;;11.70;99.90;;;;;;5052137;28;20025;-85
2023/12/21 02:30:06;;;;;;;11.63;2.13;;;12.00;99.90;;;;;;5052032;28;20035;-87
2023/12/21 02:32:32;;;;;;;7.97;2.25;;;11.40;99.90;;;;;;5051919;28;20386;-84
2023/12/21 02:34:57;;;;;;;9.65;2.42;;;11.80;99.90;;;;;;5051488;28;20064;-82
2023/12/21 02:37:23;;;;;;;12.30;2.53;;;11.60;99.90;;;;;;5049773;28;20059;-85
2023/12/21 02:39:49;;;;;;;10.70;2.20;;;12.40;99.90;;;;;;5051267;28;20036;-83
2023/12/21 02:42:14;;;;;;;10.23;2.25;;;11.70;99.90;;;;;;5051889;28;20024;-85
2023/12/21 02:44:40;;;;;;;6.40;2.22;;;12.30;99.90;;;;;;5034690;28;20116;-86
2023/12/21 02:47:05;;;;;;;9.48;2.17;;;11.80;99.90;;;;;;5050904;28;20044;-87
2023/12/21 02:49:31;;;;;;;9.65;1.90;;;12.10;99.90;;;;;;5051785;28;20065;-87
2023/12/21 02:51:57;;;;;;;9.80;2.30;;;11.50;99.90;;;;;;5051630;28;20381;-86
2023/12/21 02:54:22;;;;;;;9.23;2.30;;;11.60;99.90;;;;;;5051689;28;20036;-83
2023/12/21 02:56:48;;;;;;;6.75;1.58;;;12.00;99.90;;;;;;5051060;28;20485;-85
2023/12/21 02:59:13;;;;;;;6.07;1.75;;;11.60;99.90;;;;;;5051256;28;20057;-83
2023/12/21 03:01:42;;;;;;;5.05;1.58;;;12.00;99.90;;;;;;5052011;28;20377;-85
2023/12/21 03:04:12;;;;;;;6.32;1.92;;;11.80;99.90;;;;;;5051341;28;20028;-84
2023/12/21 03:06:37;;;;;;;5.45;1.65;;;12.00;99.90;;;;;;5050786;28;20033;-85
2023/12/21 03:09:03;;;;;;;6.20;2.00;;;11.80;99.90;;;;;;5051355;28;20260;-84
2023/12/21 03:11:29;;;;;;;6.13;2.13;;;11.90;99.90;;;;;;5051440;28;20112;-86
2023/12/21 03:13:54;;;;;;;7.05;1.95;;;11.80;99.90;;;;;;5051287;28;20117;-85
2023/12/21 03:16:20;;;;;;;4.38;1.50;;;11.70;99.90;;;;;;5050502;28;20369;-84
2023/12/21 03:18:46;;;;;;;5.88;1.80;;;11.80;99.90;;;;;;5051172;28;20079;-84
2023/12/21 03:21:12;;;;;;;11.05;1.90;;;11.90;99.90;;;;;;5051811;28;20036;-86
2023/12/21 03:23:40;;;;;;;4.40;1.50;;;11.80;99.90;;;;;;5051016;28;20067;-85
2023/12/21 03:26:06;;;;;;;3.53;1.33;;;11.60;99.90;;;;;;5050252;28;20119;-85
2023/12/21 03:28:32;;;;;;;3.10;1.35;;;11.80;99.90;;;;;;5032775;28;20044;-84
2023/12/21 03:30:57;;;;;;;2.92;1.35;;;12.10;99.90;;;;;;5051004;28;20021;-83
2023/12/21 03:33:23;;;;;;;3.65;1.30;;;12.00;99.90;;;;;;5051119;28;20032;-87
2023/12/21 03:35:49;;;;;;;4.90;1.40;;;12.00;99.90;;;;;;5050394;28;20028;-86
2023/12/21 03:38:14;;;;;;;5.22;1.55;;;11.90;99.90;;;;;;5052015;28;20477;-83
2023/12/21 03:40:40;;;;;;;4.75;1.80;;;12.00;99.90;;;;;;5032976;28;20029;-86
2023/12/21 03:43:06;;;;;;;4.32;1.35;;;11.50;99.90;;;;;;5050634;28;20531;-87
2023/12/21 03:45:32;;;;;;;4.35;1.30;;;11.80;99.90;;;;;;5032277;28;20032;-86
2023/12/21 03:47:57;;;;;;;3.17;1.48;;;11.70;99.90;;;;;;5050109;28;20465;-83
2023/12/21 03:50:23;;;;;;;4.53;1.60;;;11.70;99.90;;;;;;5050559;28;20056;-87
2023/12/21 03:52:48;;;;;;;5.38;2.13;;;12.20;99.90;;;;;;5050517;28;20366;-85
2023/12/21 03:55:14;;;;;;;4.18;1.52;;;11.80;99.90;;;;;;5050544;28;20040;-85
2023/12/21 03:57:40;;;;;;;5.82;1.70;;;11.70;99.90;;;;;;5032607;28;20025;-85
2023/12/21 04:00:06;;;;;;;7.70;2.47;;;12.10;99.90;;;;;;5049669;28;20826;-85
2023/12/21 04:02:32;;;;;;;4.88;2.35;;;11.60;99.90;;;;;;5050265;28;20432;-87
2023/12/21 04:04:58;;;;;;;6.30;3.00;;;11.90;99.90;;;;;;5049890;28;20032;-86
2023/12/21 04:07:23;;;;;;;9.02;2.40;;;12.00;99.90;;;;;;5050173;28;20025;-85
2023/12/21 04:09:49;;;;;;;3.42;1.92;;;11.90;99.90;;;;;;5050200;28;20435;-83
2023/12/21 04:12:15;;;;;;;4.97;1.88;;;11.90;99.90;;;;;;5050845;28;20546;-83
2023/12/21 04:14:41;;;;;;;3.08;1.90;;;11.80;99.90;;;;;;5049655;28;20096;-83
2023/12/21 04:17:07;;;;;;;4.30;1.90;;;11.80;99.90;;;;;;5050029;28;20028;-86
2023/12/21 04:19:34;;;;;;;4.15;2.17;;;11.80;99.90;;;;;;5049883;28;20504;-83
2023/12/21 04:22:00;;;;;;;5.10;2.10;;;12.00;99.90;;;;;;5049951;28;20025;-83
2023/12/21 04:24:25;;;;;;;3.58;2.13;;;11.70;99.90;;;;;;5049199;28;20021;-85
2023/12/21 04:26:51;;;;;;;5.45;2.03;;;12.00;99.90;;;;;;5049847;28;20119;-86
2023/12/21 04:29:17;;;;;;;5.25;2.20;;;11.90;99.90;;;;;;5050663;28;20021;-86
2023/12/21 04:31:44;;;;;;;4.95;1.60;;;11.90;99.90;;;;;;5049732;28;20057;-85
2023/12/21 04:34:10;;;;;;;2.90;1.20;;;11.80;99.90;;;;;;5049116;28;20025;-84
2023/12/21 04:36:36;;;;;;;5.90;1.45;;;11.80;99.90;;;;;;5049311;28;20041;-84
2023/12/21 04:39:03;;;;;;;3.97;1.30;;;11.90;99.90;;;;;;5049643;28;20025;-83
2023/12/21 04:41:29;;;;;;;3.33;1.10;;;12.10;99.90;;;;;;5049439;28;20044;-86
2023/12/21 04:43:54;;;;;;;6.47;1.58;;;12.20;99.90;;;;;;5049593;28;20021;-83
2023/12/21 04:46:20;;;;;;;1.52;1.27;;;11.70;99.90;;;;;;5047878;28;20033;-83
2023/12/21 04:48:45;;;;;;;3.35;1.38;;;11.80;99.90;;;;;;5050127;28;20017;-86
2023/12/21 04:51:17;;;;;;;5.07;1.50;;;12.70;99.90;;;;;;5049447;28;20233;-87
2023/12/21 04:53:44;;;;;;;4.55;1.60;;;12.00;99.90;;;;;;5049374;28;20385;-85
2023/12/21 04:56:09;;;;;;;4.65;1.20;;;12.00;99.90;;;;;;5048862;28;20313;-86
2023/12/21 04:58:35;;;;;;;1.77;1.20;;;12.10;99.90;;;;;;5048616;28;20557;-83
2023/12/21 05:01:01;;;;;;;2.28;1.40;;;12.20;99.90;;;;;;5048995;28;20033;-85
2023/12/21 05:03:26;;;;;;;4.95;1.42;;;11.80;99.90;;;;;;5049230;28;20055;-85
2023/12/21 05:05:52;;;;;;;2.42;1.00;;;12.50;99.90;;;;;;5052533;28;20503;-83
2023/12/21 05:08:18;;;;;;;2.75;1.30;;;11.70;99.90;;;;;;5052316;28;20365;-85
2023/12/21 05:10:44;;;;;;;2.67;1.00;;;11.70;99.90;;;;;;5052927;28;20095;-84
2023/12/21 05:13:09;;;;;;;2.00;0.90;;;12.20;99.90;;;;;;5033857;28;20497;-84
2023/12/21 05:15:35;;;;;;;1.67;1.02;;;12.00;99.90;;;;;;5027857;28;20083;-84
2023/12/21 05:18:01;;;;;;;2.03;0.88;;;12.10;99.90;;;;;;5042104;28;20025;-86
2023/12/21 05:20:26;;;;;;;5.95;1.98;;;11.90;99.90;;;;;;5048945;28;20072;-88
2023/12/21 05:22:52;;;;;;;1.38;0.80;;;12.30;99.90;;;;;;5049013;28;20087;-84
2023/12/21 05:25:17;;;;;;;2.28;0.70;;;12.40;99.90;;;;;;5049130;28;20086;-85
2023/12/21 05:27:43;;;;;;;2.92;1.00;;;12.10;99.90;;;;;;5048954;28;20071;-85
2023/12/21 05:30:09;;;;;;;0.80;0.73;;;12.30;99.90;;;;;;5031081;28;20056;-84
2023/12/21 05:32:35;;;;;;;4.32;0.90;;;11.70;99.90;;;;;;5047743;28;20028;-85
2023/12/21 05:35:01;;;;;;;1.95;0.63;;;12.50;99.90;;;;;;5051467;28;20029;-87
2023/12/21 05:37:27;;;;;;;2.03;0.70;;;12.30;99.90;;;;;;5037202;28;20067;-84
2023/12/21 05:39:53;;;;;;;2.60;0.80;;;12.40;99.90;;;;;;5048633;28;20068;-84
2023/12/21 05:42:19;;;;;;;2.47;0.82;;;12.60;99.90;;;;;;5049815;28;20045;-89
2023/12/21 05:44:44;;;;;;;4.20;0.63;;;11.90;99.90;;;;;;5047103;28;20033;-83
2023/12/21 05:47:10;;;;;;;2.17;0.95;;;12.20;99.90;;;;;;5048571;28;20544;-84
2023/12/21 05:49:35;;;;;;;1.58;0.80;;;12.10;99.90;;;;;;5048583;28;20033;-84
2023/12/21 05:52:01;;;;;;;3.58;1.40;;;12.00;99.90;;;;;;5030724;28;20409;-84
2023/12/21 05:54:27;;;;;;;1.13;0.70;;;12.20;99.90;;;;;;5047846;28;20040;-83
2023/12/21 05:56:53;;;;;;;1.73;0.70;;;12.50;99.90;;;;;;5048542;28;20074;-83
2023/12/21 05:59:19;;;;;;;2.28;0.80;;;12.30;99.90;;;;;;5050656;28;20123;-85
2023/12/21 06:01:45;;;;;;;1.95;0.73;;;12.10;99.90;;;;;;5052206;28;20522;-84
2023/12/21 06:04:11;;;;;;;1.17;0.70;;;12.00;99.90;;;;;;5051522;28;20025;-85
2023/12/21 06:06:37;;;;;;;2.65;1.00;;;12.70;99.90;;;;;;5060409;28;20407;-84
2023/12/21 06:09:05;;;;;;;1.40;0.65;;;12.30;99.90;;;;;;5048835;28;20022;-84
2023/12/21 06:11:30;;;;;;;3.53;0.93;;;12.10;99.90;;;;;;5055166;28;20023;-84
2023/12/21 06:13:57;;;;;;;3.30;1.20;;;;;;;;;;5051437;28;20041;-83
2023/12/21 06:16:23;;;;;;;2.42;0.70;;;11.80;99.90;;;;;;5052794;28;20381;-84
2023/12/21 06:18:50;;;;;;;2.72;0.95;;;12.00;99.90;;;;;;5053191;28;20037;-86
2023/12/21 06:21:16;;;;;;;2.10;0.70;;;12.50;99.90;;;;;;5051827;28;20025;-84
2023/12/21 06:23:41;;;;;;;0.98;0.73;;;12.30;99.90;;;;;;5051973;28;20131;-85
2023/12/21 06:26:07;;;;;;;3.30;1.00;;;12.40;99.90;;;;;;5051858;28;20100;-84
2023/12/21 06:28:32;;;;;;;1.67;0.88;;;12.30;99.90;;;;;;5052039;28;20029;-85
2023/12/21 06:30:58;;;;;;;7.05;1.13;;;13.00;99.90;;;;;;5051715;28;20037;-85
2023/12/21 06:33:24;;;;;;;3.53;1.10;;;12.60;99.90;;;;;;5052821;28;20104;-87
2023/12/21 06:35:49;;;;;;;2.65;0.80;;;11.90;99.90;;;;;;5042947;28;20017;-85
2023/12/21 06:38:15;;;;;;;2.10;0.90;;;12.20;99.90;;;;;;5047113;28;20385;-86
2023/12/21 06:40:41;;;;;;;2.83;1.10;;;12.60;99.90;;;;;;5050077;28;20075;-85
2023/12/21 06:43:07;;;;;;;2.33;1.08;;;12.00;99.90;;;;;;5050681;28;20021;-85
2023/12/21 06:45:32;;;;;;;3.15;1.10;;;12.60;99.90;;;;;;5035497;28;20458;-86
2023/12/21 06:48:00;;;;;;;3.17;1.50;;;12.70;99.90;;;;;;5050195;28;20029;-86
2023/12/21 06:50:25;;;;;;;4.38;1.00;;;12.60;99.90;;;;;;5050241;28;20021;-84
2023/12/21 06:52:51;;;;;;;0.77;0.70;;;12.40;99.90;;;;;;5051453;28;20385;-85
2023/12/21 06:55:16;;;;;;;3.45;0.90;;;12.80;99.90;;;;;;5050587;28;20481;-87
2023/12/21 06:57:42;;;;;;;2.15;0.95;;;12.40;99.90;;;;;;5049872;28;20025;-84
2023/12/21 07:00:09;;;;;;;2.83;0.93;;;12.50;99.90;;;;;;5049565;28;20139;-86
2023/12/21 07:02:35;;;;;;;4.55;1.10;;;12.00;99.90;;;;;;5050357;28;20495;-87
2023/12/21 07:05:01;;;;;;;2.60;0.85;;;12.40;99.90;;;;;;5050276;28;20032;-86
2023/12/21 07:07:26;;;;;;;2.03;1.00;;;12.40;99.90;;;;;;5050251;28;20055;-86
2023/12/21 07:09:52;;;;;;;5.82;1.17;;;12.60;99.90;;;;;;5051565;28;20047;-87
2023/12/21 07:12:19;;;;;;;2.67;1.02;;;12.70;99.90;;;;;;5051150;28;20031;-87
2023/12/21 07:14:45;;;;;;;2.33;0.80;;;12.10;99.90;;;;;;5028116;28;20285;-86
2023/12/21 07:17:11;;;;;;;1.60;0.90;;;12.30;99.90;;;;;;5050332;28;20515;-85
2023/12/21 07:19:37;;;;;;;3.10;1.00;;;12.40;99.90;;;;;;5050858;28;20021;-87
2023/12/21 07:22:04;;;;;;;1.90;0.70;;;12.40;99.90;;;;;;5051011;28;20036;-84
2023/12/21 07:24:30;;;;;;;3.30;0.80;;;12.80;99.90;;;;;;5033034;28;20029;-87
2023/12/21 07:26:56;;;;;;;4.25;1.00;;;12.60;99.90;;;;;;5051026;28;20488;-85
2023/12/21 07:29:22;;;;;;;0.73;0.63;;;11.50;99.90;;;;;;5033407;28;20029;-86
2023/12/21 07:31:48;;;;;;;3.00;1.00;;;12.10;99.90;;;;;;5050536;28;20020;-86
2023/12/21 07:34:13;;;;;;;1.77;1.00;;;12.50;99.90;;;;;;5032536;28;20021;-85
2023/12/21 07:36:39;;;;;;;4.78;1.40;;;13.10;99.90;;;;;;5032070;28;20116;-86
2023/12/21 07:39:04;;;;;;;3.10;0.98;;;12.40;99.90;;;;;;5050151;28;20036;-87
2023/12/21 07:41:30;;;;;;;1.25;0.80;;;12.70;99.90;;;;;;5050341;28;20044;-87
2023/12/21 07:43:57;;;;;;;1.48;0.65;;;12.20;99.90;;;;;;5051152;28;20104;-86
2023/12/21 07:46:24;;;;;;;3.63;1.23;;;11.90;99.90;;;;;;5051162;28;20455;-86
2023/12/21 07:48:50;;;;;;;4.63;0.90;;;12.30;99.90;;;;;;5032117;28;20400;-85
2023/12/21 07:51:15;;;;;;;4.10;1.08;;;12.20;99.90;;;;;;5050089;28;20485;-87
2023/12/21 07:53:41;;;;;;;2.10;0.90;;;12.30;99.90;;;;;;5046473;28;20036;-84
2023/12/21 07:56:07;;;;;;;4.28;1.00;;;12.40;99.90;;;;;;5029916;28;20056;-86
2023/12/21 07:58:33;;;;;;;3.15;1.15;;;11.90;99.90;;;;;;5029839;28;20040;-85
2023/12/21 08:00:59;;;;;;;5.63;0.90;;;12.60;99.90;;;;;;5012006;28;20033;-85
2023/12/21 08:03:24;;;;;;;2.60;0.90;;;12.20;99.90;;;;;;5030878;28;20026;-85
2023/12/21 08:05:50;;;;;;;2.22;0.80;;;12.30;99.90;;;;;;5012142;28;20425;-85
2023/12/21 08:08:16;;;;;;;4.45;1.08;;;12.40;99.90;;;;;;5012368;28;20029;-84
2023/12/21 08:10:42;;;;;;;2.15;1.00;;;12.90;99.90;;;;;;5030013;28;20025;-84
2023/12/21 08:13:13;;;;;;;5.10;0.98;;;12.60;99.90;;;;;;5029904;28;20101;-85
2023/12/21 08:15:39;;;;;;;2.40;0.85;;;;;;;;;;5029833;28;20048;-84
2023/12/21 08:18:05;;;;;;;2.00;1.10;;;12.00;99.90;;;;;;5029720;28;20033;-83
2023/12/21 08:20:30;;;;;;;4.50;0.93;;;12.00;99.90;;;;;;5029542;28;20034;-84
2023/12/21 08:22:58;;;;;;;3.10;1.15;;;13.00;99.90;;;;;;5029726;28;20036;-84
2023/12/21 08:25:24;;;;;;;2.58;0.80;;;12.70;99.90;;;;;;5029876;28;20420;-84
2023/12/21 08:27:50;;;;;;;3.40;0.88;;;12.40;99.90;;;;;;5029708;28;20025;-85
2023/12/21 08:30:15;;;;;;;3.95;0.90;;;13.00;99.90;;;;;;5029629;28;20040;-83
2023/12/21 08:32:41;;;;;;;4.50;0.80;;;12.10;99.90;;;;;;5029597;28;20025;-85
2023/12/21 08:35:07;;;;;;;5.10;1.05;;;12.80;99.90;;;;;;5011455;28;20091;-84
2023/12/21 08:37:33;;;;;;;2.38;1.08;;;12.20;99.90;;;;;;5029545;28;20037;-84
2023/12/21 08:39:58;;;;;;;1.88;0.90;;;12.50;99.90;;;;;;5030109;28;20112;-86
2023/12/21 08:42:26;;;;;;;3.90;0.93;;;12.30;99.90;;;;;;5029283;28;20037;-86
2023/12/21 08:44:52;;;;;;;2.60;0.95;;;12.50;99.90;;;;;;5041263;28;20527;-84
2023/12/21 08:47:18;;;;;;;2.35;0.90;;;12.50;99.90;;;;;;5049184;28;20025;-85
2023/12/21 08:49:44;;;;;;;3.15;0.90;;;12.70;99.90;;;;;;5049384;28;20031;-85
2023/12/21 08:52:09;;;;;;;1.92;0.90;;;12.60;99.90;;;;;;5049160;28;20028;-85
2023/12/21 08:54:36;;;;;;;1.27;0.80;;;12.40;99.90;;;;;;5049073;28;20029;-85
2023/12/21 08:57:01;;;;;;;2.95;0.80;;;12.60;99.90;;;;;;5048698;28;20053;-84
2023/12/21 08:59:27;;;;;;;3.50;0.80;;;12.30;99.90;;;;;;5049563;28;20056;-85
2023/12/21 09:01:56;;;;;;;2.95;0.75;;;12.70;99.90;;;;;;5048795;28;20408;-84
2023/12/21 09:04:21;;;;;;;3.35;0.82;;;12.60;99.90;;;;;;5049071;28;20057;-85
2023/12/21 09:06:47;;;;;;;1.75;0.82;;;12.80;99.90;;;;;;5048892;28;20065;-84
2023/12/21 09:09:13;;;;;;;1.25;0.80;;;12.80;99.90;;;;;;5048962;28;20075;-84
2023/12/21 09:11:41;;;;;;;3.58;1.17;;;12.30;99.90;;;;;;5048725;28;20032;-85
2023/12/21 09:14:07;;;;;;;3.33;0.90;;;12.70;99.90;;;;;;5048116;28;20017;-85
2023/12/21 09:16:33;;;;;;;2.70;1.25;;;13.10;99.90;;;;;;5048913;28;20037;-84
2023/12/21 09:18:59;;;;;;;2.22;0.90;;;12.80;99.90;;;;;;5049608;28;20487;-85
2023/12/21 09:21:24;;;;;;;4.25;1.02;;;12.60;99.90;;;;;;5048729;28;20068;-85
2023/12/21 09:23:50;;;;;;;3.80;0.77;;;13.00;99.90;;;;;;5048609;28;20032;-85
2023/12/21 09:26:16;;;;;;;2.15;1.00;;;13.30;99.90;;;;;;5048652;28;20100;-84
2023/12/21 09:28:42;;;;;;;1.15;0.70;;;12.50;99.90;;;;;;5048605;28;20501;-84
2023/12/21 09:31:07;;;;;;;4.70;1.00;;;12.80;99.90;;;;;;5030580;28;20108;-84
2023/12/21 09:33:34;;;;;;;1.35;0.80;;;13.00;99.90;;;;;;5051752;28;20076;-84
2023/12/21 09:36:00;;;;;;;2.10;0.98;;;13.00;99.90;;;;;;5056177;28;20100;-85
2023/12/21 09:38:26;;;;;;;3.15;0.93;;;12.40;99.90;;;;;;5055380;28;20045;-84
2023/12/21 09:40:52;;;;;;;3.80;1.23;;;12.60;99.90;;;;;;5055013;28;20064;-83
2023/12/21 09:43:18;;;;;;;4.47;1.30;;;13.00;99.90;;;;;;5055377;28;20484;-84
2023/12/21 09:45:48;;;;;;;1.20;0.73;;;13.00;99.90;;;;;;5054820;28;20120;-85
2023/12/21 09:48:17;;;;;;;1.98;0.85;;;12.70;99.90;;;;;;5055271;28;20021;-84
2023/12/21 09:50:44;;;;;;;2.70;1.02;;;12.70;99.90;;;;;;5055174;28;20025;-84
2023/12/21 09:53:12;;;;;;;1.67;1.10;;;12.30;99.90;;;;;;5055080;28;20032;-84
2023/12/21 09:55:42;;;;;;;2.47;0.80;;;12.90;99.90;;;;;;5055043;28;20017;-85
2023/12/21 09:58:11;;;;;;;3.75;0.88;;;12.20;99.90;;;;;;5054917;28;20029;-85
2023/12/21 10:00:37;;;;;;;3.80;1.10;;;12.80;99.90;;;;;;5054974;28;20096;-85
2023/12/21 10:03:04;;;;;;;4.65;1.10;;;12.80;99.90;;;;;;5054992;28;20132;-83
2023/12/21 10:05:30;;;;;;;2.13;1.08;;;12.90;99.90;;;;;;5055760;28;20028;-84
2023/12/21 10:07:56;;;;;;;4.00;1.20;;;12.90;99.90;;;;;;5054868;28;20033;-85
2023/12/21 10:10:22;;;;;;;1.60;0.90;;;12.80;99.90;;;;;;5055160;28;20100;-84
2023/12/21 10:12:47;;;;;;;3.08;0.88;;;12.90;99.90;;;;;;5054946;28;20103;-85
2023/12/21 10:15:13;;;;;;;1.42;0.88;;;12.70;99.90;;;;;;5054483;28;20028;-83
2023/12/21 10:17:39;;;;;;;3.88;1.15;;;12.50;99.90;;;;;;5054210;28;20032;-85
2023/12/21 10:20:06;;;;;;;1.25;0.80;;;12.70;99.90;;;;;;5054895;28;20028;-84
2023/12/21 10:22:32;;;;;;;5.85;1.35;;;12.00;99.90;;;;;;5055789;28;20023;-85
2023/12/21 10:24:58;;;;;;;4.15;1.60;;;12.60;99.90;;;;;;5054831;28;20389;-84
2023/12/21 10:27:25;;;;;;;7.00;1.67;;;12.60;99.90;;;;;;5054894;28;20618;-84
2023/12/21 10:29:55;;;;;;;7.68;1.80;;;12.10;99.90;;;;;;5054942;28;20024;-83
2023/12/21 10:32:21;;;;;;;10.95;2.72;;;12.90;99.90;;;;;;5054832;28;20017;-85
2023/12/21 10:34:48;;;;;;;13.52;2.20;;;12.60;99.90;;;;;;5054776;28;20021;-84
2023/12/21 10:37:15;;;;;;;9.20;3.03;;;12.70;99.90;;;;;;5054590;28;20025;-83
2023/12/21 10:39:41;;;;;;;12.77;2.55;;;12.50;99.90;;;;;;5054561;28;20025;-84
2023/12/21 10:42:07;;;;;;;12.30;2.70;;;12.30;99.90;;;;;;5054725;28;20033;-85
2023/12/21 10:44:33;;;;;;;19.35;2.70;;;12.50;99.90;;;;;;5053762;28;20051;-84
2023/12/21 10:47:00;;;;;;;10.48;2.78;;;12.40;99.90;;;;;;5051547;28;20396;-84
2023/12/21 10:49:27;;;;;;;13.45;2.70;;;12.70;99.90;;;;;;5051387;28;20090;-84
2023/12/21 10:51:54;;;;;;;15.90;2.78;;;12.40;99.90;;;;;;5051334;28;20040;-86
2023/12/21 10:54:22;;;;;;;9.63;2.28;;;12.30;99.90;;;;;;5051275;28;20032;-85
2023/12/21 10:56:48;;;;;;;14.73;3.38;;;12.90;99.90;;;;;;5051454;28;20025;-85
2023/12/21 10:59:14;;;;;;;17.23;3.33;;;12.80;99.90;;;;;;5051380;28;20025;-83
2023/12/21 11:01:40;;;;;;;16.20;3.78;;;12.80;99.90;;;;;;5051155;28;20558;-84
2023/12/21 11:04:08;;;;;;;22.80;3.42;;;12.50;99.90;;;;;;5052142;28;20025;-83
2023/12/21 11:06:35;;;;;;;19.98;4.13;;;12.60;99.90;;;;;;5034229;28;20401;-85
2023/12/21 11:09:04;;;;;;;21.70;4.30;;;12.70;99.90;;;;;;5050840;28;20025;-85
2023/12/21 11:11:31;;;;;;;22.80;4.93;;;12.50;99.90;;;;;;5050838;28;20431;-84
2023/12/21 11:13:56;;;;;;;20.35;3.97;;;12.80;99.90;;;;;;5050758;28;20852;-84
2023/12/21 11:16:38;;;;;;;23.60;3.75;;;12.60;99.90;;;;;;5051009;28;20028;-85
2023/12/21 11:19:07;;;;;;;27.55;5.45;;;12.50;99.90;;;;;;5033936;28;20496;-84
2023/12/21 11:21:33;;;;;;;20.15;4.32;;;12.80;99.90;;;;;;5051474;28;20033;-84
2023/12/21 11:24:00;;;;;;;22.33;4.85;;;12.60;99.90;;;;;;5050981;28;20060;-87
2023/12/21 11:26:27;;;;;;;26.67;4.57;;;12.50;99.90;;;;;;5050718;28;20029;-85
2023/12/21 11:29:06;;;;;;;25.10;4.55;;;13.20;99.90;;;;;;5050603;28;20043;-85
2023/12/21 11:31:40;;;;;;;26.55;4.68;;;12.50;99.90;;;;;;5050925;28;20117;-83
2023/12/21 11:34:16;;;;;;;25.90;5.18;;;13.10;99.90;;;;;;5051055;28;20086;-85
2023/12/21 11:36:42;;;;;;;20.55;3.75;;;12.80;99.90;;;;;;5050694;28;20029;-84
2023/12/21 11:39:21;;;;;;;34.47;5.05;;;12.60;99.90;;;;;;5051224;28;20440;-83
2023/12/21 11:41:58;;;;;;;32.03;5.32;;;12.40;99.90;;;;;;5050322;28;20028;-83
2023/12/21 11:44:24;;;;;;;29.88;5.22;;;12.60;99.90;;;;;;5050191;28;20548;-84
2023/12/21 11:46:57;;;;;;;27.50;5.65;;;12.70;99.90;;;;;;5050194;28;20047;-85
2023/12/21 11:49:26;;;;;;;27.65;5.75;;;12.70;99.90;;;;;;5050395;28;20082;-85
2023/12/21 11:51:52;;;;;;;29.67;4.97;;;12.80;99.90;;;;;;5049991;28;20033;-84
2023/12/21 11:54:23;;;;;;;30.45;5.35;;;12.80;99.90;;;;;;5050044;28;20025;-85
2023/12/21 11:56:53;;;;;;;29.77;5.60;;;13.00;99.90;;;;;;5048704;28;20381;-84
2023/12/21 11:59:22;;;;;;;35.15;5.72;;;13.00;99.90;;;;;;5049295;28;20522;-85
2023/12/21 12:01:49;;;;;;;31.63;5.32;;;12.80;99.90;;;;;;5049838;28;20072;-84
2023/12/21 12:04:15;;;;;;;30.83;5.38;;;12.90;99.90;;;;;;5050049;28;20503;-86
2023/12/21 12:06:49;;;;;;;35.72;5.47;;;12.80;99.90;;;;;;5049946;28;20029;-87
2023/12/21 12:09:17;;;;;;;28.95;6.18;;;12.50;99.90;;;;;;5049862;28;20020;-86
2023/12/21 12:11:42;;;;;;;28.92;5.53;;;12.60;99.90;;;;;;5049612;28;20029;-85
2023/12/21 12:14:11;;;;;;;32.80;5.13;;;12.80;99.90;;;;;;5050501;28;20381;-84
2023/12/21 12:16:37;;;;;;;;;;;12.40;99.90;;;;;;5051090;28;20489;-85
2023/12/21 12:19:02;;;;;;;27.63;5.20;;;12.50;99.90;;;;;;5049433;28;19944;-86
2023/12/21 12:21:29;;;;;;;31.67;5.40;;;13.00;99.90;;;;;;5049387;28;20094;-86
2023/12/21 12:23:55;;;;;;;27.10;5.40;;;12.90;99.90;;;;;;5040581;28;20025;-85
2023/12/21 12:26:21;;;;;;;24.90;4.63;;;13.00;99.90;;;;;;5039807;28;20029;-85
2023/12/21 12:28:51;;;;;;;24.17;4.55;;;12.70;99.90;;;;;;5047847;28;20047;-86
2023/12/21 12:31:17;;;;;;;25.30;5.07;;;12.40;99.90;;;;;;5048988;28;20417;-87
2023/12/21 12:33:43;;;;;;;42.90;6.03;;;12.80;99.90;;;;;;5050034;28;20090;-84
2023/12/21 12:36:09;;;;;;;28.35;5.18;;;12.90;99.90;;;;;;5049487;28;20029;-86
2023/12/21 12:38:35;;;;;;;24.05;4.88;;;12.70;99.90;;;;;;5048383;28;20021;-86